Time;durP1;ratioP1;P1;durP2;ratioP2;P2;SDS_P1;SDS_P2;PMS_P1;PMS_P2;Temp;Humidity;BMP_temperature;BMP_pressure;BME280_temperature;BME280_humidity;BME280_pressure;Samples;Min_cycle;Max_cycle;Signal;HPM_P1;HPM_P2
2022/01/16 00:04:34;;;;;;;4.70;2.00;;;;;;;0.77;68.12;98993.58;25099;1318;3054949;-71
2022/01/16 00:07:04;;;;;;;4.50;1.80;;;;;;;1.06;66.06;99000.53;25083;1318;3026601;-67
2022/01/16 00:09:34;;;;;;;6.00;1.90;;;;;;;1.05;65.53;98989.69;25018;1317;3054696;-70
2022/01/16 00:12:05;;;;;;;4.00;1.60;;;;;;;0.83;65.71;99004.13;25130;1318;3026481;-71
2022/01/16 00:14:35;;;;;;;3.60;1.40;;;;;;;0.75;65.80;99000.05;25260;1318;3026735;-68
2022/01/16 00:17:04;;;;;;;3.70;1.30;;;;;;;0.54;65.99;99005.09;25086;1316;3029158;-70
2022/01/16 00:19:33;;;;;;;3.30;1.70;;;;;;;0.44;66.23;98997.76;25104;1317;3051818;-72
2022/01/16 00:22:08;;;;;;;6.80;1.70;;;;;;;0.27;66.60;99010.80;25104;1317;3026557;-67
2022/01/16 00:24:37;;;;;;;3.20;1.90;;;;;;;0.26;66.51;99016.52;25124;1318;3054430;-70
2022/01/16 00:27:07;;;;;;;4.60;2.10;;;;;;;0.22;66.55;99021.27;25184;1320;3028402;-63
2022/01/16 00:29:36;;;;;;;3.00;1.40;;;;;;;0.09;66.79;99032.25;25496;1318;3049205;-63
2022/01/16 00:32:06;;;;;;;6.30;2.60;;;;;;;0.12;67.06;99017.70;25464;1318;3025893;-65
2022/01/16 00:34:35;;;;;;;4.30;1.90;;;;;;;0.14;66.95;99018.20;25277;1316;3070804;-71
2022/01/16 00:37:03;;;;;;;4.40;1.50;;;;;;;0.04;67.75;99023.25;25110;1318;3027448;-71
2022/01/16 00:39:32;;;;;;;3.00;1.50;;;;;;;0.00;68.39;99029.04;25103;1318;3053643;-67
2022/01/16 00:42:02;;;;;;;5.30;1.40;;;;;;;-0.04;68.78;99022.95;25101;1318;3026517;-72
2022/01/16 00:44:31;;;;;;;3.30;1.60;;;;;;;-0.04;69.64;99028.98;25084;1316;3055311;-69
2022/01/16 00:46:59;;;;;;;4.60;1.80;;;;;;;0.04;69.45;99016.90;25096;1318;3029518;-70
2022/01/16 00:49:28;;;;;;;8.40;2.30;;;;;;;-0.00;70.22;99020.61;25094;1318;3048748;-72
2022/01/16 00:51:57;;;;;;;4.40;1.80;;;;;;;0.01;70.35;99010.60;25085;1320;3028758;-67
2022/01/16 00:54:26;;;;;;;5.50;1.90;;;;;;;-0.01;71.00;99005.13;25078;1319;3059403;-72
2022/01/16 00:56:55;;;;;;;7.50;1.80;;;;;;;0.09;70.85;99010.91;25093;1318;3026511;-67
2022/01/16 00:59:24;;;;;;;8.80;2.40;;;;;;;0.82;69.46;99001.37;25084;1318;3050999;-68
2022/01/16 01:01:53;;;;;;;7.00;2.40;;;;;;;1.23;67.54;98994.16;25107;1318;3029416;-70
2022/01/16 01:04:22;;;;;;;11.10;2.30;;;;;;;1.24;66.84;99002.09;25068;1318;3056052;-73
2022/01/16 01:06:52;;;;;;;5.50;2.50;;;;;;;0.96;67.41;99018.23;25084;1318;3027202;-69
2022/01/16 01:09:21;;;;;;;4.20;1.90;;;;;;;0.75;67.49;99024.85;25104;1318;3026692;-73
2022/01/16 01:11:56;;;;;;;3.20;1.60;;;;;;;0.56;68.00;99023.98;25083;1318;3052662;-73
2022/01/16 01:14:37;;;;;;;3.90;1.50;;;;;;;0.46;67.95;99028.57;25092;1316;3026397;-72
2022/01/16 01:17:08;;;;;;;5.20;2.70;;;;;;;0.38;68.12;99040.31;25092;1318;3052562;-68
2022/01/16 01:19:38;;;;;;;5.50;1.60;;;;;;;0.39;68.04;99057.85;25095;1318;3026547;-71
2022/01/16 01:22:06;;;;;;;4.80;1.50;;;;;;;0.35;67.92;99087.10;25099;1318;3026408;-71
2022/01/16 01:24:36;;;;;;;6.20;1.80;;;;;;;0.21;67.98;99100.17;25069;1318;3053311;-69
2022/01/16 01:27:31;;;;;;;7.10;2.40;;;;;;;0.25;67.87;99128.86;25076;1318;3026455;-72
2022/01/16 01:30:01;;;;;;;5.30;2.20;;;;;;;0.23;67.66;99165.25;25087;1318;3049575;-67
2022/01/16 01:32:31;;;;;;;8.10;2.70;;;;;;;0.20;67.92;99184.27;25117;1318;3055024;-68
2022/01/16 01:35:00;;;;;;;8.00;2.40;;;;;;;0.24;67.55;99147.66;25117;1318;3026752;-66
2022/01/16 01:37:29;;;;;;;7.20;3.00;;;;;;;0.25;67.60;99027.58;25110;1317;3026658;-71
2022/01/16 01:39:58;;;;;;;5.30;2.20;;;;;;;0.20;67.73;98972.21;25090;1318;3051671;-70
2022/01/16 01:42:33;;;;;;;12.80;3.30;;;;;;;0.06;67.97;98962.42;25069;1316;3027156;-70
2022/01/16 01:53:26;;;;;;;5.60;1.90;;;;;;;0.01;68.18;99047.79;25102;1318;3055968;-65
2022/01/16 01:55:54;;;;;;;4.30;1.50;;;;;;;0.10;68.10;99073.58;25021;1317;3030085;-70
2022/01/16 01:58:23;;;;;;;3.60;1.20;;;;;;;0.01;68.19;99055.89;25065;1318;3053969;-71
2022/01/16 02:00:52;;;;;;;3.10;1.30;;;;;;;-0.09;68.26;99012.73;25084;1318;3026134;-67
2022/01/16 02:05:59;;;;;;;4.70;1.60;;;;;;;-0.08;68.35;99052.81;25095;1318;3054399;-68
2022/01/16 02:08:29;;;;;;;3.70;1.40;;;;;;;-0.11;68.10;99054.27;25124;1316;3027036;-69
2022/01/16 02:11:01;;;;;;;1.40;0.90;;;;;;;-0.10;67.77;99049.08;25051;1317;3026952;-68
2022/01/16 02:13:34;;;;;;;3.70;1.60;;;;;;;-0.06;67.77;99026.78;25088;1316;3054459;-68
2022/01/16 02:35:29;;;;;;;4.30;2.00;;;;;;;-0.04;67.57;99090.42;25097;1316;3051886;-66
2022/01/16 02:37:58;;;;;;;10.60;2.30;;;;;;;0.04;67.29;99090.25;25081;1318;3026198;-68
2022/01/16 02:40:28;;;;;;;8.20;1.90;;;;;;;0.09;66.95;99099.94;25106;1318;3027981;-67
2022/01/16 02:42:57;;;;;;;3.90;1.90;;;;;;;0.05;66.17;99098.65;25155;1318;3051076;-67
2022/01/16 02:45:29;;;;;;;5.10;1.60;;;;;;;0.07;66.37;99098.61;25087;1318;3026754;-69
2022/01/16 02:48:03;;;;;;;7.70;2.40;;;;;;;0.12;66.30;99082.84;25059;1318;3026858;-68
2022/01/16 02:50:34;;;;;;;3.00;1.50;;;;;;;0.07;66.76;99071.23;25148;1318;3052619;-71
2022/01/16 02:53:09;;;;;;;5.80;2.00;;;;;;;0.12;66.13;99081.44;25141;1318;3027062;-66
2022/01/16 02:55:41;;;;;;;6.40;2.30;;;;;;;0.15;66.22;99104.45;25102;1318;3070957;-70
2022/01/16 02:58:10;;;;;;;9.00;3.10;;;;;;;0.18;65.70;99101.63;25083;1316;3026909;-69
2022/01/16 03:00:39;;;;;;;9.70;2.90;;;;;;;0.15;65.62;99103.77;25111;1318;3029305;-70
2022/01/16 03:03:08;;;;;;;10.10;3.50;;;;;;;0.19;65.17;99108.32;25131;1318;3070923;-66
2022/01/16 03:05:37;;;;;;;13.10;4.70;;;;;;;0.23;64.24;99109.09;25126;1318;3026479;-71
2022/01/16 03:08:06;;;;;;;17.50;5.60;;;;;;;0.24;64.56;99127.14;25106;1318;3054902;-68
2022/01/16 03:13:24;;;;;;;17.40;6.30;;;;;;;0.21;64.31;99130.66;25053;1318;3056705;-66
2022/01/16 03:15:55;;;;;;;24.80;8.50;;;;;;;0.25;63.88;99137.47;25124;1318;3027075;-66
2022/01/16 03:23:41;;;;;;;11.10;3.60;;;;;;;0.32;63.66;99141.08;25103;1318;3054230;-70
2022/01/16 03:26:10;;;;;;;5.60;2.10;;;;;;;0.29;63.81;99144.95;25095;1317;3026604;-69
2022/01/16 03:28:40;;;;;;;7.80;1.80;;;;;;;0.25;63.92;99149.70;25095;1317;3055673;-73
2022/01/16 03:31:08;;;;;;;3.10;1.50;;;;;;;0.29;63.84;99150.64;25120;1318;3026035;-66
2022/01/16 03:33:37;;;;;;;3.90;1.60;;;;;;;0.35;63.79;99160.15;25100;1318;3051219;-72
2022/01/16 03:36:06;;;;;;;2.20;1.00;;;;;;;0.31;63.89;99156.61;25129;1316;3026247;-66
2022/01/16 03:38:37;;;;;;;3.30;1.10;;;;;;;0.36;63.69;99156.85;25089;1318;3058086;-72
2022/01/16 03:41:08;;;;;;;3.30;1.30;;;;;;;0.38;64.03;99158.52;25048;1316;3026687;-67
2022/01/16 03:43:36;;;;;;;3.90;1.50;;;;;;;0.45;64.21;99166.10;25081;1318;3026187;-64
2022/01/16 03:46:05;;;;;;;2.50;1.20;;;;;;;0.44;64.49;99168.37;25054;1318;3026662;-70
2022/01/16 03:48:34;;;;;;;2.90;1.60;;;;;;;0.44;64.64;99169.23;25074;1318;3051391;-69
2022/01/16 03:51:03;;;;;;;3.20;1.00;;;;;;;0.44;64.50;99174.05;25106;1318;3028049;-68
2022/01/16 03:53:33;;;;;;;2.50;1.30;;;;;;;0.46;64.52;99180.89;25059;1318;3058430;-67
2022/01/16 03:56:02;;;;;;;3.40;0.90;;;;;;;0.38;64.53;99182.48;25149;1317;3027310;-69
2022/01/16 03:58:31;;;;;;;2.10;0.70;;;;;;;0.40;64.50;99184.50;25060;1317;3054002;-70
2022/01/16 04:01:00;;;;;;;3.50;1.20;;;;;;;0.40;64.62;99174.33;25075;1316;3028060;-69
2022/01/16 04:03:29;;;;;;;3.90;1.60;;;;;;;0.46;64.18;99171.60;25057;1316;3051419;-72
2022/01/16 04:05:58;;;;;;;4.10;1.20;;;;;;;0.39;64.89;99171.93;25092;1316;3026318;-69
2022/01/16 04:08:27;;;;;;;5.90;1.20;;;;;;;0.36;65.09;99185.95;25090;1316;3051202;-67
2022/01/16 04:10:56;;;;;;;2.50;1.20;;;;;;;0.31;65.42;99175.56;25098;1316;3026829;-72
2022/01/16 04:13:25;;;;;;;2.60;1.10;;;;;;;0.35;65.44;99181.85;25091;1318;3072408;-67
2022/01/16 04:15:54;;;;;;;2.90;1.10;;;;;;;0.33;65.94;99177.59;25079;1318;3026484;-70
2022/01/16 04:18:27;;;;;;;1.10;0.80;;;;;;;0.35;65.97;99186.17;25116;1318;3054077;-66
2022/01/16 04:20:57;;;;;;;4.90;1.40;;;;;;;0.34;66.22;99191.36;25089;1318;3026822;-70
2022/01/16 04:23:27;;;;;;;2.00;0.90;;;;;;;0.37;66.11;99184.05;25128;1318;3056944;-69
2022/01/16 04:25:56;;;;;;;4.50;1.50;;;;;;;0.29;66.59;99190.95;25089;1317;3026861;-71
2022/01/16 04:28:25;;;;;;;3.90;1.30;;;;;;;0.27;67.13;99189.27;25056;1318;3027162;-72
2022/01/16 04:30:55;;;;;;;5.20;1.30;;;;;;;0.29;66.97;99181.47;25110;1317;3026606;-67
2022/01/16 04:33:23;;;;;;;5.30;1.40;;;;;;;0.44;66.61;99186.98;25084;1318;3026557;-71
2022/01/16 04:35:52;;;;;;;4.40;1.50;;;;;;;0.30;67.29;99191.25;25063;1318;3070165;-69
2022/01/16 04:38:21;;;;;;;2.40;0.90;;;;;;;0.23;67.49;99209.71;25116;1316;3028592;-67
2022/01/16 04:43:47;;;;;;;3.20;1.20;;;;;;;0.23;68.02;99194.00;25110;1318;3068431;-67
2022/01/16 04:46:23;;;;;;;2.00;1.00;;;;;;;0.24;67.90;99209.49;25086;1318;3049161;-69
2022/01/16 04:48:53;;;;;;;3.40;1.30;;;;;;;0.22;68.10;99203.69;25066;1317;3055893;-72
2022/01/16 04:51:22;;;;;;;5.10;1.60;;;;;;;0.32;67.82;99206.06;25057;1317;3027170;-66
2022/01/16 04:53:51;;;;;;;4.30;1.10;;;;;;;0.30;67.85;99215.73;25117;1317;3027141;-70
2022/01/16 04:56:20;;;;;;;6.60;1.30;;;;;;;0.33;67.74;99221.34;25087;1317;3026520;-65
2022/01/16 04:58:49;;;;;;;3.20;1.30;;;;;;;0.33;67.91;99232.22;25364;1317;3053676;-64
2022/01/16 05:01:18;;;;;;;2.40;1.20;;;;;;;0.25;68.24;99242.04;25426;1318;3027004;-64
2022/01/16 05:03:47;;;;;;;3.10;1.30;;;;;;;0.29;68.21;99241.27;25428;1316;3051968;-70
2022/01/16 05:06:16;;;;;;;7.20;1.80;;;;;;;0.22;68.35;99252.61;25096;1318;3026050;-67
2022/01/16 05:08:45;;;;;;;6.70;1.60;;;;;;;0.25;68.27;99245.13;25062;1316;3049342;-66
2022/01/16 05:11:16;;;;;;;6.20;1.40;;;;;;;0.22;68.66;99252.61;25065;1318;3028208;-68
2022/01/16 05:19:12;;;;;;;5.80;1.60;;;;;;;0.25;68.87;99263.75;25104;1318;3053159;-67
2022/01/16 05:21:44;;;;;;;4.50;1.30;;;;;;;0.22;68.84;99277.08;25037;1318;3069191;-69
2022/01/16 05:24:13;;;;;;;3.40;1.10;;;;;;;0.20;69.02;99276.08;25047;1318;3027192;-64
2022/01/16 05:26:43;;;;;;;2.40;1.30;;;;;;;0.27;68.79;99278.86;25078;1317;3029210;-72
2022/01/16 05:29:12;;;;;;;3.50;1.10;;;;;;;0.20;69.20;99278.83;25076;1317;3070361;-69
2022/01/16 05:31:47;;;;;;;4.30;1.20;;;;;;;0.20;69.06;99286.58;25091;1316;3027246;-71
2022/01/16 05:34:19;;;;;;;2.00;0.90;;;;;;;0.22;69.11;99296.20;25088;1318;3053689;-71
2022/01/16 05:36:48;;;;;;;1.90;0.90;;;;;;;0.29;68.61;99292.95;25061;1318;3026585;-68
2022/01/16 05:39:17;;;;;;;4.00;1.20;;;;;;;0.29;68.75;99295.01;25048;1318;3026481;-70
2022/01/16 05:41:46;;;;;;;3.10;1.00;;;;;;;0.17;69.45;99291.13;25097;1318;3051420;-67
2022/01/16 05:44:15;;;;;;;4.10;1.40;;;;;;;0.18;69.14;99290.59;25081;1318;3026828;-66
2022/01/16 05:46:44;;;;;;;3.00;1.50;;;;;;;0.15;69.41;99281.36;25089;1317;3055579;-69
2022/01/16 05:49:12;;;;;;;3.40;1.20;;;;;;;0.20;69.35;99295.38;25053;1317;3027539;-68
2022/01/16 05:51:42;;;;;;;3.90;1.50;;;;;;;0.20;69.35;99296.59;25097;1318;3048863;-67
2022/01/16 05:54:10;;;;;;;5.40;1.50;;;;;;;0.23;69.18;99307.89;25110;1318;3026746;-68
2022/01/16 05:56:39;;;;;;;5.00;1.30;;;;;;;0.17;69.48;99309.04;25093;1318;3057881;-65
2022/01/16 05:59:08;;;;;;;6.20;1.70;;;;;;;0.22;69.21;99314.80;25082;1318;3026957;-67
2022/01/16 06:01:37;;;;;;;7.20;1.50;;;;;;;0.27;68.98;99316.77;25096;1318;3055373;-65
2022/01/16 06:04:06;;;;;;;2.20;0.70;;;;;;;0.22;68.98;99320.15;25095;1317;3026623;-67
2022/01/16 06:06:35;;;;;;;6.20;1.90;;;;;;;0.29;68.85;99316.37;25123;1318;3051400;-70
2022/01/16 06:09:04;;;;;;;4.30;1.40;;;;;;;0.35;68.49;99318.50;25098;1316;3026622;-71
2022/01/16 06:11:33;;;;;;;3.80;1.30;;;;;;;0.31;68.69;99322.89;25066;1318;3051623;-70
2022/01/16 06:14:02;;;;;;;3.60;1.40;;;;;;;0.34;68.48;99315.40;25115;1318;3029950;-70
2022/01/16 06:16:31;;;;;;;4.30;1.20;;;;;;;0.26;68.60;99321.10;25035;1316;3069581;-67
2022/01/16 06:18:59;;;;;;;4.60;1.70;;;;;;;0.33;68.54;99322.83;25110;1318;3026433;-67
2022/01/16 06:21:28;;;;;;;2.60;1.20;;;;;;;0.28;68.66;99330.36;25134;1318;3049386;-68
2022/01/16 06:23:57;;;;;;;3.10;1.40;;;;;;;0.25;68.51;99321.63;25058;1318;3030158;-69
2022/01/16 06:26:26;;;;;;;3.20;1.80;;;;;;;0.32;68.68;99320.98;25105;1318;3052310;-68
2022/01/16 06:28:55;;;;;;;5.60;1.50;;;;;;;0.44;67.91;99326.40;25090;1318;3026843;-68
2022/01/16 06:31:24;;;;;;;5.20;1.70;;;;;;;0.38;67.99;99325.85;25072;1318;3052338;-66
2022/01/16 06:33:53;;;;;;;4.40;2.00;;;;;;;0.30;67.92;99332.38;25062;1318;3027542;-72
2022/01/16 06:36:21;;;;;;;3.50;1.50;;;;;;;0.39;67.93;99332.02;25116;1316;3055312;-68
2022/01/16 06:38:53;;;;;;;5.90;1.50;;;;;;;0.34;67.73;99333.34;25105;1318;3026414;-66
2022/01/16 06:41:21;;;;;;;4.10;1.70;;;;;;;0.44;67.60;99331.05;25064;1317;3049936;-66
2022/01/16 06:43:50;;;;;;;4.60;1.90;;;;;;;0.46;67.62;99340.14;25061;1318;3026811;-65
2022/01/16 06:46:19;;;;;;;4.90;1.80;;;;;;;0.44;67.59;99349.49;25106;1317;3053744;-69
2022/01/16 06:48:49;;;;;;;6.00;1.60;;;;;;;0.49;67.35;99350.41;25076;1318;3026906;-68
2022/01/16 06:51:19;;;;;;;3.20;1.20;;;;;;;0.42;67.37;99364.02;25053;1317;3051159;-66
2022/01/16 06:53:48;;;;;;;4.20;1.50;;;;;;;0.39;67.57;99355.11;25061;1317;3025990;-69
2022/01/16 06:56:17;;;;;;;6.30;1.70;;;;;;;0.40;67.58;99376.11;25048;1318;3027266;-66
2022/01/16 06:58:46;;;;;;;7.30;1.90;;;;;;;0.43;67.37;99369.67;25092;1316;3026118;-68
2022/01/16 07:01:15;;;;;;;6.70;1.80;;;;;;;0.40;67.63;99366.46;25058;1318;3054707;-69
2022/01/16 07:03:44;;;;;;;5.40;1.60;;;;;;;0.46;67.20;99366.16;25052;1316;3028672;-67
2022/01/16 07:06:13;;;;;;;6.00;2.00;;;;;;;0.39;67.52;99367.19;25082;1318;3048178;-69
2022/01/16 07:08:42;;;;;;;2.20;1.40;;;;;;;0.42;67.21;99366.23;25123;1316;3026866;-67
2022/01/16 07:11:11;;;;;;;3.00;1.50;;;;;;;0.49;67.16;99366.45;25052;1317;3066788;-68
2022/01/16 07:13:40;;;;;;;3.50;1.50;;;;;;;0.58;66.60;99374.70;25102;1318;3028794;-69
2022/01/16 07:16:08;;;;;;;5.90;1.60;;;;;;;0.56;66.52;99380.95;25103;1318;3053778;-70
2022/01/16 07:18:38;;;;;;;3.70;1.50;;;;;;;0.51;66.77;99380.89;25093;1317;3026534;-70
2022/01/16 07:21:12;;;;;;;4.60;1.70;;;;;;;0.49;66.44;99387.83;25096;1317;3050987;-67
2022/01/16 07:23:42;;;;;;;4.70;1.70;;;;;;;0.51;66.28;99381.41;25095;1318;3049725;-67
2022/01/16 07:26:15;;;;;;;7.20;1.60;;;;;;;0.57;65.92;99384.89;25096;1317;3028503;-69
2022/01/16 07:28:44;;;;;;;3.50;1.70;;;;;;;0.58;65.97;99384.88;25071;1318;3027115;-70
2022/01/16 07:31:13;;;;;;;4.00;1.10;;;;;;;0.65;65.97;99386.11;25074;1317;3026409;-72
2022/01/16 07:33:42;;;;;;;3.00;1.30;;;;;;;0.67;65.41;99392.44;25061;1317;3070605;-66
2022/01/16 07:36:11;;;;;;;7.40;2.10;;;;;;;0.69;65.11;99396.88;25139;1318;3027719;-69
2022/01/16 07:38:41;;;;;;;3.40;1.30;;;;;;;0.73;65.22;99400.93;25102;1318;3053263;-69
2022/01/16 07:41:10;;;;;;;5.10;1.70;;;;;;;0.77;65.08;99409.98;25068;1318;3026924;-69
2022/01/16 07:43:39;;;;;;;5.20;1.90;;;;;;;0.71;64.86;99418.39;25127;1318;3054567;-70
2022/01/16 07:46:08;;;;;;;8.10;1.80;;;;;;;0.75;64.82;99426.23;25076;1318;3026540;-69
2022/01/16 07:48:37;;;;;;;6.80;2.50;;;;;;;0.73;64.72;99432.49;25068;1318;3048767;-68
2022/01/16 07:51:06;;;;;;;3.70;1.80;;;;;;;0.83;64.57;99425.55;25092;1318;3026036;-71
2022/01/16 07:53:35;;;;;;;5.80;2.10;;;;;;;0.77;64.70;99423.96;25091;1316;3057974;-68
2022/01/16 07:56:04;;;;;;;5.10;2.00;;;;;;;0.82;64.88;99424.72;25094;1318;3026854;-71
2022/01/16 07:58:33;;;;;;;11.20;2.70;;;;;;;0.75;64.90;99433.13;25037;1316;3053634;-69
2022/01/16 08:01:03;;;;;;;6.60;2.30;;;;;;;0.81;64.54;99433.36;25084;1317;3026827;-68
2022/01/16 08:03:32;;;;;;;5.30;2.30;;;;;;;0.86;64.44;99432.54;25075;1317;3055884;-66
2022/01/16 08:06:02;;;;;;;7.10;2.60;;;;;;;0.80;64.45;99430.43;25084;1317;3026647;-71
2022/01/16 08:08:31;;;;;;;9.50;3.60;;;;;;;0.79;64.76;99431.33;25157;1318;3026224;-69
2022/01/16 08:11:00;;;;;;;10.90;4.30;;;;;;;0.80;64.68;99434.75;25091;1317;3052243;-67
2022/01/16 08:13:29;;;;;;;9.30;3.70;;;;;;;0.82;65.04;99445.77;25111;1318;3026897;-71
2022/01/16 08:15:58;;;;;;;9.60;3.40;;;;;;;0.82;64.94;99457.30;25100;1318;3047323;-72
2022/01/16 08:18:28;;;;;;;5.50;2.70;;;;;;;0.78;65.28;99461.01;25065;1318;3026425;-71
2022/01/16 08:20:57;;;;;;;8.50;2.80;;;;;;;0.74;65.13;99466.09;25083;1317;3029473;-66
2022/01/16 08:23:26;;;;;;;14.90;3.70;;;;;;;0.81;64.95;99483.36;25134;1318;3048723;-72
2022/01/16 08:25:55;;;;;;;8.60;3.70;;;;;;;0.80;65.58;99478.38;25091;1316;3026947;-70
2022/01/16 08:28:24;;;;;;;14.60;5.30;;;;;;;0.84;65.52;99477.44;25094;1318;3028430;-70
2022/01/16 08:30:53;;;;;;;20.00;5.70;;;;;;;0.79;65.49;99481.33;25070;1318;3048583;-69
2022/01/16 08:33:22;;;;;;;18.40;6.80;;;;;;;0.72;66.04;99481.13;25070;1317;3026900;-72
2022/01/16 08:35:51;;;;;;;24.60;8.60;;;;;;;0.76;66.37;99479.15;25069;1318;3070778;-66
2022/01/16 08:38:21;;;;;;;25.70;8.20;;;;;;;0.87;66.09;99476.86;25065;1318;3026493;-69
2022/01/16 08:40:50;;;;;;;16.10;6.10;;;;;;;0.83;66.51;99484.35;25117;1316;3052021;-71
2022/01/16 08:43:19;;;;;;;15.20;4.80;;;;;;;0.82;66.58;99476.78;25050;1317;3027023;-64
2022/01/16 08:45:50;;;;;;;11.00;3.70;;;;;;;0.92;66.50;99478.47;25105;1316;3053453;-71
2022/01/16 08:48:21;;;;;;;5.60;2.80;;;;;;;1.08;66.00;99474.69;25112;1318;3027549;-66
2022/01/16 08:50:50;;;;;;;10.10;2.50;;;;;;;1.07;65.83;99480.58;25077;1317;3051697;-68
2022/01/16 08:53:18;;;;;;;7.80;2.60;;;;;;;1.04;65.79;99492.36;25092;1318;3028171;-70
2022/01/16 08:55:47;;;;;;;6.70;2.70;;;;;;;0.99;65.99;99485.04;25095;1318;3056848;-74
2022/01/16 08:58:16;;;;;;;7.60;2.30;;;;;;;1.10;65.90;99489.47;25105;1318;3026736;-71
2022/01/16 09:00:47;;;;;;;3.80;1.60;;;;;;;1.08;65.44;99496.77;25067;1318;3050947;-72
2022/01/16 09:03:21;;;;;;;6.60;1.40;;;;;;;1.12;65.53;99490.47;25115;1316;3027000;-69
2022/01/16 09:05:50;;;;;;;4.50;2.00;;;;;;;1.15;65.54;99494.02;25107;1316;3028920;-69
2022/01/16 09:08:19;;;;;;;3.80;1.60;;;;;;;1.03;65.94;99485.30;25066;1318;3026533;-70
2022/01/16 09:10:48;;;;;;;3.60;1.50;;;;;;;1.21;65.71;99486.68;25112;1318;3059788;-69
2022/01/16 09:13:16;;;;;;;6.80;1.80;;;;;;;1.11;65.65;99488.42;25091;1318;3029091;-70
2022/01/16 09:15:49;;;;;;;7.50;2.10;;;;;;;1.12;65.92;99479.96;25062;1317;3050920;-69
2022/01/16 09:18:18;;;;;;;7.10;2.20;;;;;;;0.96;66.12;99468.39;25097;1318;3029811;-71
2022/01/16 09:20:47;;;;;;;4.30;1.50;;;;;;;1.08;66.05;99466.77;25108;1316;3027028;-68
2022/01/16 09:23:16;;;;;;;4.80;1.70;;;;;;;0.96;66.65;99468.39;25097;1318;3051597;-70
2022/01/16 09:25:45;;;;;;;4.30;1.60;;;;;;;1.04;66.95;99466.33;25049;1317;3027010;-68
2022/01/16 09:28:14;;;;;;;5.30;1.60;;;;;;;1.09;66.10;99468.81;25356;1317;3056223;-66
2022/01/16 09:30:43;;;;;;;5.50;2.00;;;;;;;1.16;65.93;99458.13;25490;1318;3026377;-65
2022/01/16 09:33:13;;;;;;;5.40;1.50;;;;;;;1.23;65.37;99464.02;25487;1317;3051143;-65
2022/01/16 09:35:41;;;;;;;8.60;2.50;;;;;;;1.10;65.71;99464.28;25173;1318;3026453;-68
2022/01/16 09:38:11;;;;;;;5.50;2.00;;;;;;;1.09;65.91;99463.11;25062;1317;3071916;-72
2022/01/16 09:40:42;;;;;;;5.90;1.60;;;;;;;1.19;65.53;99465.13;25091;1318;3026949;-69
2022/01/16 09:43:11;;;;;;;5.40;1.70;;;;;;;1.33;65.57;99468.46;25113;1318;3026438;-65
2022/01/16 09:45:40;;;;;;;4.70;2.10;;;;;;;1.24;65.34;99479.17;25071;1316;3026902;-68
2022/01/16 09:48:09;;;;;;;6.60;2.00;;;;;;;1.13;65.40;99484.42;25079;1318;3028943;-69
2022/01/16 09:50:38;;;;;;;3.90;1.70;;;;;;;1.18;65.66;99463.09;25122;1316;3051691;-70
2022/01/16 09:53:07;;;;;;;9.80;2.20;;;;;;;1.23;65.50;99472.48;25077;1318;3028734;-72
2022/01/16 09:55:36;;;;;;;4.70;1.80;;;;;;;1.31;65.42;99466.77;25050;1318;3051054;-71
2022/01/16 09:58:05;;;;;;;7.10;2.00;;;;;;;1.35;64.83;99477.20;25093;1318;3027238;-74
2022/01/16 10:00:34;;;;;;;7.40;1.90;;;;;;;1.36;64.62;99470.63;25069;1317;3070194;-69
2022/01/16 10:03:04;;;;;;;4.70;1.50;;;;;;;1.22;65.20;99459.20;25090;1316;3026696;-68
2022/01/16 10:05:38;;;;;;;3.70;1.20;;;;;;;1.18;65.08;99460.33;25078;1316;3051371;-73
2022/01/16 10:08:08;;;;;;;7.90;1.80;;;;;;;1.19;65.44;99462.02;25080;1318;3026066;-67
2022/01/16 10:10:39;;;;;;;4.10;1.40;;;;;;;1.33;65.36;99461.54;25138;1318;3028588;-70
2022/01/16 10:13:23;;;;;;;6.20;1.90;;;;;;;1.35;65.34;99456.83;25087;1317;3027288;-68
2022/01/16 10:15:57;;;;;;;4.00;1.50;;;;;;;1.19;65.51;99465.64;25084;1316;3050967;-67
2022/01/16 10:18:40;;;;;;;4.20;1.50;;;;;;;1.08;66.03;99464.52;25064;1316;3059265;-70
2022/01/16 10:21:09;;;;;;;7.20;1.40;;;;;;;1.11;65.87;99458.06;25104;1316;3026774;-68
2022/01/16 10:23:39;;;;;;;3.80;1.60;;;;;;;1.11;65.82;99470.16;25130;1317;3026859;-67
2022/01/16 10:26:18;;;;;;;9.40;1.70;;;;;;;1.17;65.67;99455.01;25039;1317;3056183;-68
2022/01/16 10:28:48;;;;;;;7.30;2.40;;;;;;;1.18;65.49;99459.80;25076;1317;3052864;-73
2022/01/16 10:31:19;;;;;;;7.60;1.70;;;;;;;1.19;65.26;99458.04;25086;1316;3026759;-68
2022/01/16 10:33:48;;;;;;;9.40;1.90;;;;;;;1.14;65.43;99454.90;25104;1316;3026811;-72
2022/01/16 10:36:33;;;;;;;5.60;1.80;;;;;;;1.24;65.19;99457.10;25077;1317;3026324;-72
2022/01/16 10:39:09;;;;;;;7.90;2.10;;;;;;;1.44;64.63;99452.14;25103;1316;3057507;-68
2022/01/16 10:41:39;;;;;;;4.50;2.00;;;;;;;1.59;64.23;99459.91;25101;1317;3054231;-70
2022/01/16 10:44:27;;;;;;;6.70;1.70;;;;;;;1.63;64.00;99456.02;25042;1318;3026522;-66
2022/01/16 10:46:57;;;;;;;6.00;1.60;;;;;;;1.51;63.86;99463.89;25120;1317;3049494;-70
2022/01/16 10:49:26;;;;;;;6.60;2.20;;;;;;;1.40;64.11;99484.52;25087;1316;3027081;-68
2022/01/16 10:52:06;;;;;;;4.80;1.20;;;;;;;1.27;64.12;99467.55;25077;1318;3028849;-68
2022/01/16 10:54:38;;;;;;;6.80;2.00;;;;;;;1.37;63.90;99466.63;25045;1317;3049331;-65
2022/01/16 10:57:24;;;;;;;4.10;1.30;;;;;;;1.36;63.73;99470.45;25088;1318;3030329;-67
2022/01/16 11:00:09;;;;;;;5.00;1.40;;;;;;;1.37;64.07;99462.67;25042;1317;3053188;-68
2022/01/16 11:02:39;;;;;;;4.40;1.60;;;;;;;1.49;63.65;99461.52;25050;1317;3056329;-71
2022/01/16 11:05:19;;;;;;;3.70;1.30;;;;;;;1.38;63.86;99463.69;24906;1316;3218276;-68
2022/01/16 11:08:05;;;;;;;5.40;1.70;;;;;;;1.36;64.20;99469.23;25092;1318;3054095;-71
2022/01/16 11:10:45;;;;;;;5.30;1.30;;;;;;;1.53;63.61;99466.23;25079;1318;3053727;-64
2022/01/16 11:13:16;;;;;;;6.40;2.00;;;;;;;1.39;64.25;99470.38;25051;1316;3068489;-72
2022/01/16 11:15:47;;;;;;;8.90;2.50;;;;;;;1.51;64.04;99465.29;25117;1318;3026731;-66
2022/01/16 11:18:17;;;;;;;7.30;1.60;;;;;;;1.54;63.63;99473.99;25094;1316;3027341;-69
2022/01/16 11:20:56;;;;;;;8.70;2.80;;;;;;;1.46;63.24;99473.85;25087;1316;3028118;-66
2022/01/16 11:23:33;;;;;;;8.10;1.80;;;;;;;1.40;63.03;99467.08;25075;1317;3056718;-69
2022/01/16 11:26:04;;;;;;;7.20;2.10;;;;;;;1.45;62.61;99468.70;25080;1318;3048769;-71
2022/01/16 11:28:34;;;;;;;7.80;2.60;;;;;;;1.59;62.25;99451.09;25085;1317;3028235;-69
2022/01/16 11:31:04;;;;;;;10.00;3.10;;;;;;;1.54;62.39;99463.46;25102;1316;3028136;-66
2022/01/16 11:33:34;;;;;;;8.50;2.80;;;;;;;1.64;62.05;99456.34;25082;1316;3048958;-71
2022/01/16 11:36:12;;;;;;;7.80;3.00;;;;;;;1.78;61.99;99463.75;25145;1316;3026980;-66
2022/01/16 11:38:49;;;;;;;6.00;2.80;;;;;;;1.71;61.84;99463.77;25094;1318;3053701;-70
2022/01/16 11:41:31;;;;;;;10.70;2.30;;;;;;;1.77;61.34;99456.71;25078;1318;3069228;-71
2022/01/16 11:44:02;;;;;;;7.60;2.80;;;;;;;1.68;61.37;99478.17;25119;1318;3049612;-72
2022/01/16 11:46:39;;;;;;;6.60;2.20;;;;;;;1.75;61.41;99469.52;25156;1316;3026542;-67
2022/01/16 11:49:13;;;;;;;6.60;2.30;;;;;;;1.79;61.19;99459.07;25078;1318;3054057;-67
2022/01/16 11:51:48;;;;;;;6.50;2.00;;;;;;;1.94;60.71;99458.20;25056;1318;3058636;-68
2022/01/16 11:54:32;;;;;;;6.80;2.60;;;;;;;1.86;60.65;99470.11;25077;1318;3051859;-68
2022/01/16 11:57:28;;;;;;;12.50;2.50;;;;;;;1.81;61.33;99470.42;25094;1318;3053838;-69
2022/01/16 12:00:15;;;;;;;6.50;2.50;;;;;;;1.86;60.61;99473.41;25109;1318;3053672;-67
2022/01/16 12:02:49;;;;;;;5.60;2.10;;;;;;;1.88;60.51;99468.70;25061;1316;3069523;-69
2022/01/16 12:05:27;;;;;;;6.30;2.30;;;;;;;1.85;60.11;99467.04;25119;1316;3026833;-69
2022/01/16 12:08:08;;;;;;;7.40;2.40;;;;;;;1.98;60.01;99471.91;25101;1318;3052819;-69
2022/01/16 12:10:47;;;;;;;7.70;2.90;;;;;;;1.97;59.91;99472.42;25067;1316;3054081;-72
2022/01/16 12:13:42;;;;;;;7.20;2.40;;;;;;;1.88;59.95;99482.17;25044;1316;3056162;-71
2022/01/16 12:16:44;;;;;;;9.30;2.60;;;;;;;1.79;60.78;99482.05;25081;1316;3052730;-70
2022/01/16 12:19:33;;;;;;;8.00;2.40;;;;;;;1.80;60.97;99486.16;25017;1317;3053986;-70
2022/01/16 12:22:04;;;;;;;8.50;2.70;;;;;;;1.67;61.39;99494.74;25098;1318;3052660;-69
2022/01/16 12:24:35;;;;;;;6.70;2.70;;;;;;;1.65;61.81;99490.66;25046;1317;3028183;-66
2022/01/16 12:28:01;;;;;;;9.20;3.10;;;;;;;1.88;61.42;99490.13;31554;1319;3026092;-68
2022/01/16 12:30:48;;;;;;;11.30;3.80;;;;;;;2.11;60.78;99493.17;25047;1322;3054743;-69
2022/01/16 12:33:20;;;;;;;6.10;2.70;;;;;;;2.12;59.84;99491.07;25074;1319;3052207;-70